コモドロリバダビア の空港の天気 - METARとTAF

Comodoro Rivadavia Aerodrome ( SAVC / CRD ) - アルゼンチン チュブ州コモドロリバダビア
飛行場実況気象(Metar)
観測時間01/23 02:00 ART (01/23 05:00 UTC)
風向・風速西南西 4m/s
視程10km以上
天気現象
なし
気温17℃
湿度59%
気圧1005hPa
METARSAVC 230500Z 25008KT 180V300 CAVOK 17/09 Q1005
過去の天気等 Google飛行場航空写真 Wunderground天気予報

過去48時間のMETAR

飛行場予報(TAF)
発表時間: 1/23 02:00 ART (1/23 05:00 UTC)
予報対象時間: 23日3時 ART ~ 24日3時 ART
風向・風速西南西 8m/s
視程10km以上
なし
23日5時 ART ~ 23日7時 ART に徐々に
風向・風速南西 10m/s 瞬間風速 15m/s
23日9時 ART ~ 23日11時 ART に徐々に
風向・風速南 8m/s
全天の4割程度の雲 雲底高度 910m
全天の4割程度の雲 雲底高度 2,740m
23日12時 ART ~ 23日14時 ART に徐々に
風向・風速南東 8m/s
天気現象弱いしゅう雨
全天の8割程度の雲 雲底高度 610m
全天の8割程度の雲 雲底高度 2,440m
TAF SAVC 230500Z 2306/2406 25015KT CAVOK TX23/2319Z TN12/2312Z
BECMG 2308/2310 23020G30KT
BECMG 2312/2314 18015KT SCT030 SCT090
BECMG 2315/2317 14015KT -SHRA BKN020 BKN080